Tiempo atmosférico en la estación meteorológica de A Pobra de Trives, Ourense (840 m.)



Fecha
DESCASC
Temp. máxima en grados centígrados (hora)
DESCASC
Temp. mínima en grados centígrados (hora)
DESCASC
Temp. media en grados centígrados
DESCASC
Racha de viento máxima en m/sg (hora)
DESCASC
Velocidad máxima media en intervalos de 10 minutos(hora)
DESCASC
Precipitaciones diarias en mm
DESCASC
Precipitaciones de 00:00 a 06:00 en mm
DESCASC
Precipitaciones de 06:00 a 12:00 en mm
DESCASC
Precipitaciones de 12:00 a 18:00 en mm
DESCASC
Precipitaciones de 18:00 a 24:00 en mm
DESCASC
22-04-2019 19.7 (14:40) 4.1 (06:50) 11.9 11.39 (19:50) 5 (19:50) 0.4 0 0 0.2 0.2
21-04-2019 19.7 (16:00) 7.1 (06:30) 13.4 10.28 (20:10) 4.17 (20:10) 0.6 0 0 0 0.6
20-04-2019 24.1 (17:40) 8.7 (08:00) 16.4 8.33 (15:30) 4.17 (18:20) 0 0 0 0 0
19-04-2019 15.4 (15:10) 7.2 (05:40) 11.3 13.33 (14:30) 6.67 (14:40) 1 0.8 0.2 0 0
18-04-2019 15.2 (16:40) 5.5 (00:00) 10.3 7.22 (17:50) 3.33 (06:40) 2 1.2 0.2 0 0.6
17-04-2019 15.8 (16:50) 8.5 (00:00) 12.2 16.94 (13:10) 6.39 (07:40) 2 0 0 0.4 1.6
16-04-2019 17.4 (17:30) 0.8 (00:00) 9.1 11.11 (13:30) 5.83 (14:10) 0 0 0 0 0
15-04-2019 14.2 (03:40) 5 (00:00) 9.6 15.28 (13:50) 7.22 (13:50) 10.6 0 5.6 5 0
14-04-2019 18.4 (17:10) 11.1 (00:00) 14.8 5 (00:20) 2.5 (23:10) 0.2 0 0.2 0 0
13-04-2019 19.6 (15:00) 5.7 (00:00) 12.7 8.06 (19:40) 4.17 (19:20) 0 0 0 0 0
12-04-2019 17.5 (18:00) 0.1 (00:00) 8.8 7.5 (23:59) 4.44 (23:59) 0 0 0 0 0
11-04-2019 14.3 (18:20) -0.4 (00:00) 7 8.06 (17:50) 3.61 (17:50) 0 0 0 0 0
10-04-2019 11.3 (16:50) 3.8 (00:00) 7.6 11.94 (04:10) 5.28 (08:10) 7.8 0.6 2.6 4.2 0.4
09-04-2019 10.3 (15:40) 2.7 (00:00) 6.5 13.89 (19:20) 6.67 (15:00) 21.4 6 7.8 1 6.6
08-04-2019 13.6 (16:40) 3.2 (00:00) 8.4 12.78 (17:40) 5.28 (16:00) 2.8 2.4 0.2 0 0.2
07-04-2019 8.9 (14:00) 0.8 (00:00) 4.8 12.22 (14:50) 5 (16:40) 11.4 3.2 1.2 1.6 5.4
06-04-2019 7.6 (12:50) 0.4 (00:00) 4 12.78 (16:30) 5.83 (13:10) 25.4 5.2 6.4 7.4 6.4
05-04-2019 10.7 (15:00) 0.3 (00:00) 5.5 11.39 (16:30) 5.56 (15:10) 3.2 1.6 0 0.2 1.4
04-04-2019 9.6 (13:40) 0.8 (00:00) 5.2 10.28 (13:40) 5.28 (13:40) 2.6 0 0 0 2.6
03-04-2019 8.5 (18:00) 1.2 (00:00) 4.9 12.22 (16:00) 5.83 (15:50) 1.2 0 0.4 0.8 0
02-04-2019 14.8 (17:20) 1.9 (00:00) 8.4 9.72 (22:00) 4.72 (00:50) 0 0 0 0 0
01-04-2019 18.9 (16:40) 4.6 (00:00) 11.7 9.17 (18:00) 4.17 (23:40) 0 0 0 0 0
31-03-2019 18.4 (15:20) 2.6 (00:00) 10.5 10 (16:10) 3.89 (13:00) 0 0 0 0 0
30-03-2019 18.3 (17:30) 5.1 (00:00) 11.7 7.22 (18:30) 3.89 (18:30) 1.2 0 0 0 1.2
29-03-2019 20.1 (15:00) 2.7 (00:00) 11.4 7.5 (19:30) 4.44 (19:40) 0 0 0 0 0
28-03-2019 20.2 (17:20) 2.4 (00:00) 11.3 6.39 (12:50) 3.33 (13:40) 0 0 0 0 0
27-03-2019 21.3 (17:00) 5.8 (00:00) 13.5 8.33 (03:50) 4.44 (03:50) 0 0 0 0 0
26-03-2019 18.7 (16:20) 4.5 (00:00) 11.6 12.5 (14:30) 6.94 (16:10) 0 0 0 0 0
25-03-2019 19.5 (16:50) 3.2 (00:00) 11.4 7.78 (23:10) 4.44 (20:00) 0 0 0 0 0

Gráficas

Temp. máximas Temp. mínimas Temp. medias Precipitaciones Rachas de viento máximas Velocidades máximas media en intervalos de 10 minutos

Datos horarios

Fecha y hora oficial Temperatura (ºC) Velocidad del viento (km/h) Dirección del viento Racha (km/h) Dirección de racha Precipitación (mm) Presión (hPa) Tendencia (hPa) Humedad (%)
2019-04-23 23:00:00 3 13 Oeste 25 Sudoeste 0 904 1.5 86
2019-04-23 22:00:00 3 10 Noroeste 33 Sudoeste 2 903.5 1.1 88
2019-04-23 21:00:00 5.4 10 Sudoeste 27 Oeste 0 903 1.2 78
2019-04-23 20:00:00 6.3 12 Oeste 28 Oeste 0 902.5 0.5 68
2019-04-23 19:00:00 7.3 13 Oeste 48 Oeste 0 902.4 0.4 70
2019-04-23 18:00:00 8.9 19 Oeste 42 Oeste 0.2 901.8 0 66
2019-04-23 17:00:00 5.5 14 Oeste 45 Sudoeste 0.4 902 0.6 83
2019-04-23 16:00:00 7.1 15 Oeste 30 Sudoeste 0.2 902 1 74
2019-04-23 15:00:00 6.2 15 Oeste 35 Oeste 0.2 901.8 1.4 84
2019-04-23 14:00:00 4.3 17 Oeste 55 Oeste 1.4 901.4 1.5 85
2019-04-23 13:00:00 8.4 15 Sudoeste 34 Sudoeste 0 901 1.2 70
2019-04-23 12:00:00 7.6 15 Sudoeste 33 Oeste 0 900.4 0.9 65
2019-04-23 11:00:00 7.7 8 Sudoeste 23 Sudoeste 0 899.9 0.6 66
2019-04-23 10:00:00 5.9 4 Oeste 13 Nordeste 0 899.8 0.9 78
2019-04-23 09:00:00 4.2 4 Noroeste 15 Norte 0 899.5 0.6 89
2019-04-23 08:00:00 2.9 4 Sudeste 19 Oeste 0 899.3 0.1 90
2019-04-23 07:00:00 3.9 8 Oeste 18 Oeste 0 898.9 -0.4 91
2019-04-23 06:00:00 4.3 2 Norte 12 Noroeste 0 898.9 -0.9 89
2019-04-23 05:00:00 4.7 9 Oeste 15 Oeste 0 899.2 -1.4 87
2019-04-23 04:00:00 5.5 3 Noroeste 13 Este 0.6 899.3 -1.5 92
2019-04-23 03:00:00 5.7 4 Sudeste 13 Noroeste 0.4 899.8 -0.4 89
2019-04-23 02:00:00 5.5 9 Noroeste 31 Oeste 0.2 900.6 -0.3 89
2019-04-23 01:00:00 6.7 14 Oeste 37 Oeste 0.4 900.8 0 83
2019-04-23 00:00:00 8.2 4 Nordeste 28 Este 0 900.2 -0.8 76
2019-04-22 23:00:00 8.5 8 Norte 27 Nordeste 0.2 900.9 -0.2 72
2019-04-22 22:00:00 9.9 13 Norte 38 Oeste 0 900.8 -0.9 59
2019-04-22 21:00:00 11.6 5 Sur 33 Oeste 0 901 -1.5 48
2019-04-22 20:00:00 12.2 18 Sudoeste 41 Sudoeste 0 901.1 -1.9 53
2019-04-22 19:00:00 13.1 13 Sudoeste 35 Sudoeste 0 901.7 -1.9 53
2019-04-22 18:00:00 13.4 8 Sudoeste 32 Sudoeste 0.2 902.5 -1.8 67
2019-04-22 17:00:00 16.3 11 Sudoeste 31 Oeste 0 903 -2 48
2019-04-22 16:00:00 17.7 13 Sudoeste 32 Oeste 0 903.6 -2.6 44
2019-04-22 15:00:00 19 10 Sudoeste 28 Sudoeste 0 904.3 -2.7 40
2019-04-22 14:00:00 18.6 8 Sudoeste 21 Oeste 0 905 -2.5 40
2019-04-22 13:00:00 16.1 8 Este 16 Este 0 906.2 -2 49
2019-04-22 12:00:00 14.5 8 Este 18 Este 0 907 -1.7 58
2019-04-22 11:00:00 12.6 6 Este 13 Nordeste 0 907.5 -1.4 67
2019-04-22 10:00:00 10.4 5 Este 10 Este 0 908.2 -0.8 71
2019-04-22 09:00:00 7.4 4 Noroeste 9 Noroeste 0 908.7 -1 85
2019-04-22 08:00:00 4.7 5 Noroeste 11 Noroeste 0 908.9 -1.5 90
2019-04-22 07:00:00 4.3 8 Noroeste 12 Noroeste 0 909 -2.1 90
2019-04-22 06:00:00 4.4 6 Noroeste 14 Noroeste 0 909.7 -2.1 89
2019-04-22 05:00:00 4.8 8 Noroeste 13 Noroeste 0 910.4 -2.4 89
2019-04-22 04:00:00 5.4 7 Noroeste 14 Noroeste 0 911.1 -2.1 87
2019-04-22 03:00:00 6.3 7 Noroeste 15 Oeste 0 911.8 -1.9 85
2019-04-22 02:00:00 7.5 8 Oeste 16 Noroeste 0 912.8 -1.1 81
2019-04-22 01:00:00 7.4 9 Noroeste 15 Noroeste 0 913.2 -0.7 83
2019-04-22 00:00:00 8.3 8 Noroeste 15 Noroeste 0 913.7 0 81
2019-04-21 23:00:00 10 10 Oeste 19 Oeste 0 913.9 0 75
2019-04-21 22:00:00 11.2 13 Oeste 23 Oeste 0 913.9 0 71
2019-04-21 21:00:00 12.4 9 Oeste 37 Nordeste 0.6 913.7 -0.4 70
2019-04-21 20:00:00 15.6 9 Nordeste 24 Este 0 913.9 -1.2 48
2019-04-21 19:00:00 16.7 6 Nordeste 19 Norte 0 913.9 -2 40
2019-04-21 18:00:00 18.4 6 Norte 19 Este 0 914.1 -2.8 34
2019-04-21 17:00:00 18.2 5 Este 13 Nordeste 0 915.1 -2.8 38
2019-04-21 16:00:00 19.5 12 Nordeste 25 Este 0 915.9 -2.6 34
2019-04-21 15:00:00 18.1 9 Sudeste 19 Este 0 916.9 -2.3 39
2019-04-21 14:00:00 16.4 4 Norte 24 Noroeste 0 917.9 -1.7 50
2019-04-21 13:00:00 18.7 9 Este 19 Este 0 918.5 -1.3 35
2019-04-21 12:00:00 17.3 11 Nordeste 19 Este 0 919.2 -0.7 36
2019-04-21 11:00:00 16 8 Este 15 Nordeste 0 919.6 -0.2 44
2019-04-21 10:00:00 14.2 4 Este 9 Este 0 919.8 0 49
2019-04-21 09:00:00 10.4 5 Norte 10 Noroeste 0 919.9 -0.1 63
2019-04-21 08:00:00 8.1 2 Noroeste 11 Nordeste 0 919.8 -0.4 60
2019-04-21 07:00:00 8 6 Nordeste 9 Este 0 919.8 -0.6 62
2019-04-21 06:00:00 8.1 0 Calma 7 Noroeste 0 920 -1 59
2019-04-21 05:00:00 9.7 3 Sur 15 Este 0 920.2 -1.3 54
2019-04-21 04:00:00 10.6 7 Este 15 Nordeste 0 920.4 -1.5 51
2019-04-21 03:00:00 11.2 8 Este 15 Este 0 921 -1 49
2019-04-21 02:00:00 11.5 8 Este 23 Sudeste 0 921.5 -0.4 48
2019-04-21 01:00:00 12.2 9 Este 27 Este 0 921.9 0.7 47
2019-04-21 00:00:00 12.6 6 Este 17 Este 0 922 1.3 48
2019-04-20 23:00:00 13 3 Sudoeste 14 Oeste 0 921.9 1.4 52
2019-04-20 22:00:00 14.9 5 Noroeste 22 Norte 0 921.2 0.9 44
2019-04-20 21:00:00 17.3 11 Norte 22 Nordeste 0 920.7 0.1 36
2019-04-20 20:00:00 19.8 7 Nordeste 27 Norte 0 920.5 -0.9 31
2019-04-20 19:00:00 22.5 14 Noroeste 30 Noroeste 0 920.3 -1.9 29
2019-04-20 18:00:00 23.9 13 Oeste 26 Oeste 0 920.6 -2.1 28
2019-04-20 17:00:00 23.7 9 Oeste 25 Oeste 0 921.4 -2 33
2019-04-20 16:00:00 22.2 7 Este 30 Este 0 922.2 -1.6 31
2019-04-20 15:00:00 21.9 13 Este 27 Este 0 922.7 -1.5 27
2019-04-20 14:00:00 21.6 5 Este 19 Este 0 923.4 -1 39
2019-04-20 13:00:00 19.5 8 Este 14 Este 0 923.8 -0.8 38
2019-04-20 12:00:00 17.7 7 Sudeste 21 Este 0 924.2 -0.5 48
2019-04-20 11:00:00 16.2 8 Sudeste 14 Sudeste 0 924.4 -0.4 47
2019-04-20 10:00:00 14.3 7 Este 15 Sudeste 0 924.6 0 51
2019-04-20 09:00:00 11.7 0 Calma 9 Sudoeste 0 924.7 -0.6 57
2019-04-20 08:00:00 8.8 3 Noroeste 15 Nordeste 0 924.8 -0.6 66
2019-04-20 07:00:00 9.9 8 Nordeste 13 Nordeste 0 924.6 -0.9 61
2019-04-20 06:00:00 9.9 4 Sudeste 13 Sudeste 0 925.3 -0.3 61
2019-04-20 05:00:00 10.1 7 Sudeste 13 Sudeste 0 925.4 -0.5 61
2019-04-20 04:00:00 10.1 4 Sudeste 12 Este 0 925.5 -0.5 61
2019-04-20 03:00:00 10.3 6 Este 13 Este 0 925.6 -0.3 61
2019-04-20 02:00:00 10.8 6 Este 15 Sudeste 0 925.9 0.8 60
2019-04-20 01:00:00 11.2 7 Sudeste 18 Sudeste 0 926 1.8 61
2019-04-20 00:00:00 11 4 Sudeste 11 Este 0 925.9 2.3 64
2019-04-19 23:00:00 12 5 Este 18 Nordeste 0 925.1 2.2 63
2019-04-19 22:00:00 12.5 13 Nordeste 31 Nordeste 0 924.2 1.8 65
2019-04-19 21:00:00 13.5 15 Este 38 Nordeste 0 923.6 1.3 60
2019-04-19 20:00:00 14.1 16 Este 39 Este 0 922.9 1 59
2019-04-19 19:00:00 15.1 17 Este 28 Nordeste 0 922.4 0.7 58
2019-04-19 18:00:00 13.7 14 Este 30 Este 0 922.3 1 60
2019-04-19 17:00:00 14.4 18 Este 37 Este 0 921.9 1 57
2019-04-19 16:00:00 14.8 19 Este 43 Este 0 921.7 0.7 56
2019-04-19 15:00:00 15.3 21 Este 48 Este 0 921.3 0.8 58
2019-04-19 14:00:00 13.8 23 Este 42 Este 0 920.9 0.6 63
2019-04-19 13:00:00 13.5 21 Este 42 Nordeste 0 921 1.4 68
2019-04-19 12:00:00 13.1 19 Este 35 Nordeste 0.2 920.5 1.3 69
2019-04-19 11:00:00 9.6 13 Este 25 Este 0 920.3 1.9 92
2019-04-19 10:00:00 8.1 8 Este 15 Sudeste 0 919.6 1.8 93
2019-04-19 09:00:00 8 8 Este 15 Este 0 919.2 1.6 93
2019-04-19 08:00:00 7.6 4 Sudeste 13 Sudeste 0 918.4 0.5 93
2019-04-19 07:00:00 7.3 6 Noroeste 14 Oeste 0 917.8 -0.3 94
2019-04-19 06:00:00 7.2 9 Oeste 16 Oeste 0 917.6 -0.7 94
2019-04-19 05:00:00 7.3 6 Noroeste 13 Oeste 0 917.9 -0.7 93
2019-04-19 04:00:00 7.5 6 Oeste 15 Oeste 0.6 918.1 -0.9 93
2019-04-19 03:00:00 7.9 9 Noroeste 14 Noroeste 0.2 918.3 -0.9 91
2019-04-19 02:00:00 8.1 6 Noroeste 14 Oeste 0 918.6 -0.4 89
2019-04-19 01:00:00 8.3 2 Sudoeste 7 Sudeste 0 919 0.1 88
2019-04-19 00:00:00 8.4 4 Sudeste 13 Este 0.2 919.2 1.7 87
2019-04-18 23:00:00 9 4 Este 11 Este 0.4 919 2.1 87
2019-04-18 22:00:00 9.7 8 Este 17 Nordeste 0 918.9 2.2 81
2019-04-18 21:00:00 11 5 Nordeste 19 Norte 0 917.5 1 73
2019-04-18 20:00:00 12.2 8 Noroeste 18 Noroeste 0 916.9 0.7 69
2019-04-18 19:00:00 12.5 8 Noroeste 19 Norte 0 916.7 0.2 66
2019-04-18 18:00:00 13.2 9 Nordeste 26 Nordeste 0 916.5 -0.3 65
2019-04-18 17:00:00 14.4 10 Sudeste 25 Este 0 916.2 -0.9 47
2019-04-18 16:00:00 14.9 9 Nordeste 18 Este 0 916.5 -0.7 49
2019-04-18 15:00:00 13.6 9 Este 22 Sudeste 0 916.8 -0.3 55
2019-04-18 14:00:00 12.8 9 Este 21 Nordeste 0 917.1 0.4 66
2019-04-18 13:00:00 11.2 10 Este 18 Este 0 917.2 0.8 79
2019-04-18 12:00:00 9.5 8 Nordeste 17 Norte 0 917.1 1.1 83
2019-04-18 11:00:00 9.2 6 Nordeste 14 Nordeste 0 916.7 1.4 88
2019-04-18 10:00:00 8.5 8 Sudeste 17 Sudeste 0 916.4 1.7 91
2019-04-18 09:00:00 6.7 5 Nordeste 14 Este 0 916 1.4 94
2019-04-18 08:00:00 5.7 4 Sudoeste 22 Sudeste 0 915.3 1.1 93
2019-04-18 07:00:00 6.2 6 Este 21 Este 0.2 914.7 0.7 95
2019-04-18 06:00:00 6.6 4 Oeste 10 Este 0 914.6 0.2 94
2019-04-18 05:00:00 6.3 4 Norte 11 Norte 0 914.2 -0.2 94
2019-04-18 04:00:00 6.7 6 Este 13 Este 0 914 0 94
2019-04-18 03:00:00 7.2 4 Norte 13 Sudeste 0 914.4 0.9 94
2019-04-18 02:00:00 7.7 6 Este 14 Este 0.4 914.4 1.4 94
2019-04-18 01:00:00 8.2 8 Este 13 Nordeste 0.8 914 1.4 93
2019-04-18 00:00:00 8.5 6 Noroeste 15 Oeste 0.4 913.5 1.3 90
2019-04-17 23:00:00 8.7 8 Noroeste 14 Noroeste 0 913 1.6 89
2019-04-17 22:00:00 9 5 Noroeste 9 Norte 0 912.6 1.3 88
2019-04-17 21:00:00 9.4 3 Norte 14 Norte 0 912.2 1.6 89
2019-04-17 20:00:00 9.9 12 Este 26 Sudoeste 0.2 911.4 0.9 87
2019-04-17 19:00:00 10.6 7 Oeste 30 Sudoeste 1 911.3 0.5 83
2019-04-17 18:00:00 12.2 15 Sur 39 Sur 0.4 910.6 -0.6 75
2019-04-17 17:00:00 15.5 20 Sudeste 45 Sudeste 0 910.5 -1.3 57
2019-04-17 16:00:00 13.6 17 Sudeste 42 Sudeste 0 910.8 -1.4 59
2019-04-17 15:00:00 13.9 13 Sudeste 44 Sur 0 911.2 -1.2 58
2019-04-17 14:00:00 14.7 19 Sudeste 61 Sudeste 0 911.8 -0.7 54
2019-04-17 13:00:00 14.3 18 Sudeste 44 Sur 0 912.2 0.1 53
2019-04-17 12:00:00 11.6 14 Este 48 Este 0 912.4 0.4 65
2019-04-17 11:00:00 11.4 15 Sudeste 55 Sudeste 0 912.5 1 62
2019-04-17 10:00:00 11.6 12 Sudeste 52 Este 0 912.1 0.6 59
2019-04-17 09:00:00 11.6 16 Este 34 Este 0 912 0.5 57
2019-04-17 08:00:00 11.7 22 Este 42 Este 0 911.5 -0.5 54
2019-04-17 07:00:00 12 21 Este 40 Nordeste 0 911.5 -0.7 53
2019-04-17 06:00:00 12.3 19 Este 36 Nordeste 0 911.5 -1.3 49
2019-04-17 05:00:00 12.8 12 Nordeste 27 Este 0 912 -1.7 48
2019-04-17 04:00:00 12 4 Norte 19 Este 0 912.2 -2.4 51
2019-04-17 03:00:00 12.1 3 Sur 31 Nordeste 0 912.8 -2.3 50
2019-04-17 02:00:00 12.9 13 Este 30 Nordeste 0 913.7 -2.1 47
2019-04-17 01:00:00 13.1 15 Este 27 Este 0 914.6 -1.4 46
2019-04-17 00:00:00 12.5 11 Este 21 Este 0 915.1 -1.1 49
2019-04-16 23:00:00 12.6 8 Este 25 Este 0 915.8 -0.6 47
2019-04-16 22:00:00 13.1 8 Sudeste 18 Sudeste 0 916 -0.9 47
2019-04-16 21:00:00 14.2 8 Sudeste 26 Sudeste 0 916.2 -0.9 43
2019-04-16 20:00:00 15.1 9 Sudeste 27 Sur 0 916.4 -1.3 41
2019-04-16 19:00:00 16.4 10 Sur 40 Sur 0 916.9 -1.6 35
2019-04-16 18:00:00 17.3 15 Sur 36 Sudeste 0 917.1 -1.7 33
2019-04-16 17:00:00 17 18 Sudeste 34 Sur 0 917.7 -1.3 30
2019-04-16 16:00:00 16 11 Sudeste 35 Sudeste 0 918.5 -1.1 38
2019-04-16 15:00:00 16 18 Este 39 Sur 0 918.8 -1.5 39
2019-04-16 14:00:00 15.3 19 Este 40 Sudeste 0 919 -1.8 36
2019-04-16 13:00:00 13.6 18 Sudeste 34 Sudeste 0 919.6 -1.4 50
2019-04-16 12:00:00 10 11 Nordeste 21 Este 0 920.3 -0.6 76
2019-04-16 11:00:00 8.4 7 Este 18 Este 0 920.8 -0.1 77
2019-04-16 10:00:00 6.4 9 Este 16 Este 0 921 0.1 79
2019-04-16 09:00:00 4.3 5 Nordeste 8 Nordeste 0 920.9 -0.6 87
2019-04-16 08:00:00 1.3 5 Noroeste 11 Noroeste 0 920.9 -0.6 92
2019-04-16 07:00:00 0.8 8 Noroeste 12 Noroeste 0 920.9 -0.4 92
2019-04-16 06:00:00 1.2 8 Noroeste 15 Noroeste 0 921.5 -0.3 91
2019-04-16 05:00:00 1.5 9 Noroeste 14 Noroeste 0 921.5 -0.2 91
2019-04-16 04:00:00 1.7 9 Noroeste 13 Noroeste 0 921.3 -0.3 90
2019-04-16 03:00:00 2.5 8 Noroeste 15 Noroeste 0 921.8 0.4 90
2019-04-16 02:00:00 3 8 Noroeste 13 Oeste 0 921.7 0.6 89
2019-04-16 01:00:00 3.8 5 Noroeste 14 Oeste 0 921.6 1.3 86
2019-04-16 00:00:00 5 6 Noroeste 27 Sudoeste 0 921.4 2.2 84
2019-04-15 23:00:00 6.1 14 Oeste 30 Oeste 0 921.1 2.5 83
2019-04-15 22:00:00 6.7 12 Oeste 26 Sudoeste 0 920.3 2.3 82
2019-04-15 21:00:00 8 9 Oeste 37 Oeste 0 919.2 2.3 77
2019-04-15 20:00:00 9.4 17 Oeste 34 Oeste 0 918.6 2.3 72
2019-04-15 19:00:00 11.8 19 Oeste 40 Oeste 0 918 2.1 65
2019-04-15 18:00:00 11.4 19 Oeste 46 Oeste 0.2 916.9 0.7 74
2019-04-15 17:00:00 10.7 15 Oeste 33 Sudoeste 1.6 916.3 1 85
2019-04-15 16:00:00 13.5 14 Oeste 31 Oeste 0 915.9 1 74
2019-04-15 15:00:00 9 7 Sudoeste 37 Sudoeste 1.4 916.2 1.8 83
2019-04-15 14:00:00 9.4 23 Oeste 55 Oeste 0.8 915.3 1.3 82
2019-04-15 13:00:00 11.1 23 Oeste 46 Noroeste 1 914.9 1.1 86
2019-04-15 12:00:00 13.2 9 Sur 41 Oeste 0 914.4 0.9 66
2019-04-15 11:00:00 11.9 14 Oeste 37 Oeste 0 914 0.7 73
2019-04-15 10:00:00 11.6 14 Oeste 44 Sudoeste 0 913.8 0.2 75
2019-04-15 09:00:00 12.4 12 Oeste 31 Sur 4.2 913.5 -0.8 91
2019-04-15 08:00:00 12.7 5 Oeste 18 Sudeste 1.4 913.3 -2 89
2019-04-15 07:00:00 13.1 8 Sudeste 22 Este 0 913.6 -2.4 85
2019-04-15 06:00:00 13.2 12 Sudeste 23 Sudeste 0 914.3 -2.6 83
2019-04-15 05:00:00 13.3 5 Sudeste 21 Sudeste 0 915.3 -2.2 79
2019-04-15 04:00:00 13.9 9 Este 24 Sudeste 0 916 -2 76
2019-04-15 03:00:00 13.5 6 Sudeste 13 Sur 0 916.9 -1.6 78
2019-04-15 02:00:00 13.5 5 Este 12 Este 0 917.5 -1.3 79
2019-04-15 01:00:00 13.7 5 Sudeste 13 Este 0 918 -1 78
2019-04-15 00:00:00 13.8 5 Este 15 Este 0 918.5 -0.1 78
2019-04-14 23:00:00 14.3 8 Sudeste 17 Sudeste 0 918.8 0 74
2019-04-14 22:00:00 14.2 4 Sudoeste 13 Oeste 0 919 0 70
2019-04-14 21:00:00 15.3 3 Sur 9 Sudoeste 0 918.6 -0.5 66
2019-04-14 20:00:00 16.6 3 Sudeste 11 Norte 0 918.8 -1 66
2019-04-14 19:00:00 17.4 9 Este 16 Este 0 919 -1.7 65
2019-04-14 18:00:00 17.6 5 Nordeste 15 Noroeste 0 919.1 -2 63
2019-04-14 17:00:00 18.3 3 Oeste 11 Este 0 919.8 -1.4 60
2019-04-14 16:00:00 17.9 6 Sudeste 13 Norte 0 920.7 -0.8 63
2019-04-14 15:00:00 17 7 Oeste 15 Este 0 921.1 -0.7 70
2019-04-14 14:00:00 16.6 6 Este 16 Este 0 921.2 -0.5 70
2019-04-14 13:00:00 16.2 7 Este 14 Sudeste 0 921.5 0.1 71
2019-04-14 12:00:00 14.8 7 Este 13 Este 0 921.8 0.3 78
2019-04-14 11:00:00 13.8 3 Nordeste 7 Sudeste 0 921.7 0.4 83
2019-04-14 10:00:00 12.2 4 Sudeste 8 Sudeste 0.2 921.4 0.4 90
2019-04-14 09:00:00 11.4 0 Calma 5 Oeste 0 921.5 0.2 90
2019-04-14 08:00:00 11.1 3 Norte 5 Norte 0 921.3 -0.3 87
2019-04-14 07:00:00 11.2 0 Calma 6 Norte 0 921 -1 87
2019-04-14 06:00:00 11.2 4 Norte 6 Noroeste 0 921.3 -0.9 87
2019-04-14 05:00:00 11.3 0 Calma 3 Este 0 921.6 -0.9 85
2019-04-14 04:00:00 11.2 2 Este 6 Este 0 922 -0.9 87
2019-04-14 03:00:00 11.3 3 Este 8 Sudeste 0 922.2 -0.8 87
2019-04-14 02:00:00 11.6 5 Oeste 14 Oeste 0 922.5 -0.5 85
2019-04-14 01:00:00 11.7 7 Noroeste 18 Noroeste 0 922.9 0.1 86
2019-04-14 00:00:00 11.7 6 Oeste 13 Oeste 0 923 0.6 86
2019-04-13 23:00:00 11.8 9 Oeste 16 Oeste 0 923 1 85
2019-04-13 22:00:00 12 8 Oeste 17 Oeste 0 922.8 1.1 85
2019-04-13 21:00:00 13.1 9 Oeste 22 Oeste 0 922.4 1 78
2019-04-13 20:00:00 13.8 12 Oeste 29 Oeste 0 922 0.5 71
2019-04-13 19:00:00 15.7 12 Noroeste 29 Sudoeste 0 921.7 0.1 54
2019-04-13 18:00:00 18 10 Oeste 21 Oeste 0 921.4 -0.4 43
2019-04-13 17:00:00 18.4 10 Sudoeste 21 Sudoeste 0 921.5 -0.5 40
2019-04-13 16:00:00 18.3 11 Sudoeste 23 Sudoeste 0 921.6 -0.7 37
2019-04-13 15:00:00 19.3 9 Oeste 17 Sudoeste 0 921.8 -0.7 34
2019-04-13 14:00:00 18.3 4 Nordeste 13 Nordeste 0 922 -0.6 39
2019-04-13 13:00:00 15.8 6 Este 17 Sudeste 0 922.3 -0.1 44
2019-04-13 12:00:00 14.7 8 Este 15 Este 0 922.5 -0.2 53
2019-04-13 11:00:00 12.7 8 Este 14 Este 0 922.6 0.3 57
2019-04-13 10:00:00 11.7 3 Sudeste 10 Noroeste 0 922.4 0.3 57
2019-04-13 09:00:00 7.1 4 Oeste 8 Norte 0 922.7 0.7 78
2019-04-13 08:00:00 6.3 2 Nordeste 9 Noroeste 0 922.3 0.1 81
2019-04-13 07:00:00 6 6 Noroeste 13 Noroeste 0 922.1 0 83
2019-04-13 06:00:00 5.8 8 Noroeste 13 Oeste 0 922 -1 82
2019-04-13 05:00:00 6.4 4 Oeste 14 Noroeste 0 922.2 -0.7 81
2019-04-13 04:00:00 6.6 9 Noroeste 14 Noroeste 0 922.1 -0.7 79
2019-04-13 03:00:00 7.4 9 Oeste 15 Oeste 0 923 0.2 77
2019-04-13 02:00:00 7.6 7 Oeste 16 Oeste 0 922.9 0.3 76
2019-04-13 01:00:00 8.3 9 Noroeste 24 Oeste 0 922.8 0.5 73
2019-04-13 00:00:00 8.4 16 Oeste 27 Oeste 0 922.8 1.2 70
2019-04-12 23:00:00 9.4 11 Oeste 22 Oeste 0 922.6 1.2 60
2019-04-12 22:00:00 10 11 Oeste 20 Oeste 0 922.3 0.9 45
2019-04-12 21:00:00 11.5 8 Oeste 17 Oeste 0 921.6 0.1 39
2019-04-12 20:00:00 13.8 9 Oeste 19 Oeste 0 921.4 -0.1 35
2019-04-12 19:00:00 17 9 Noroeste 23 Norte 0 921.4 -0.9 34
2019-04-12 18:00:00 17.5 9 Noroeste 23 Oeste 0 921.5 -1.2 37
2019-04-12 17:00:00 17 6 Noroeste 20 Oeste 0 921.5 -1.6 42
2019-04-12 16:00:00 16.7 4 Este 17 Sudoeste 0 922.3 -1.2 42
2019-04-12 15:00:00 16.1 5 Norte 15 Noroeste 0 922.7 -0.9 47
2019-04-12 14:00:00 14.7 5 Este 16 Este 0 923.1 -0.5 48
2019-04-12 13:00:00 13.3 9 Sudeste 17 Este 0 923.5 -0.1 56
2019-04-12 12:00:00 11.7 7 Sudeste 14 Sudeste 0 923.6 0 60
2019-04-12 11:00:00 9.1 6 Nordeste 12 Este 0 923.6 0.2 69
2019-04-12 10:00:00 6.9 3 Este 7 Oeste 0 923.6 0.5 75
2019-04-12 09:00:00 3.2 5 Noroeste 10 Noroeste 0 923.6 0.6 87
2019-04-12 08:00:00 0.2 8 Noroeste 12 Noroeste 0 923.4 0.1 92
2019-04-12 07:00:00 0.5 7 Noroeste 12 Oeste 0 923.1 -0.4 91
2019-04-12 06:00:00 1 8 Noroeste 12 Noroeste 0 923 -0.7 90
2019-04-12 05:00:00 1.5 7 Noroeste 11 Noroeste 0 923.3 -0.6 89
2019-04-12 04:00:00 1.7 7 Noroeste 13 Oeste 0 923.5 -0.2 88
2019-04-12 03:00:00 2.7 10 Noroeste 21 Oeste 0 923.7 -0.2 86
2019-04-12 02:00:00 3.5 11 Oeste 17 Oeste 0 923.9 -0.1 85
2019-04-12 01:00:00 4.5 9 Noroeste 21 Oeste 0 923.7 -0.1 80
2019-04-12 00:00:00 5.3 10 Oeste 15 Oeste 0 923.9 0.4 80
2019-04-11 23:00:00 6.9 11 Oeste 19 Oeste 0 924 0.8 74
2019-04-11 22:00:00 7.1 9 Oeste 18 Oeste 0 923.8 0.5 73
2019-04-11 21:00:00 8.9 5 Oeste 21 Noroeste 0 923.5 0.3 65
2019-04-11 20:00:00 10.6 8 Noroeste 22 Noroeste 0 923.2 -0.1 59
2019-04-11 19:00:00 12.2 10 Noroeste 25 Noroeste 0 923.3 -0.4 53
2019-04-11 18:00:00 14 10 Noroeste 29 Oeste 0 923.2 -0.7 47
2019-04-11 17:00:00 11.8 9 Noroeste 21 Norte 0 923.3 -0.9 54
2019-04-11 16:00:00 11.8 11 Norte 24 Oeste 0 923.7 -0.8 55
2019-04-11 15:00:00 12 10 Oeste 27 Oeste 0 923.9 -0.7 51
2019-04-11 14:00:00 11 7 Noroeste 17 Noroeste 0 924.2 -0.1 56
2019-04-11 13:00:00 12.3 5 Nordeste 13 Este 0 924.5 0.4 59
2019-04-11 12:00:00 9.5 4 Este 12 Nordeste 0 924.6 0.7 80
2019-04-11 11:00:00 7.5 6 Este 13 Noroeste 0 924.3 0.7 83
2019-04-11 10:00:00 5.8 4 Noroeste 9 Noroeste 0 924.1 0.6 88
2019-04-11 09:00:00 2.3 5 Noroeste 13 Noroeste 0 923.9 0.5 95
2019-04-11 08:00:00 -0.4 8 Noroeste 13 Noroeste 0 923.6 0.1 96
2019-04-11 07:00:00 0.9 5 Oeste 13 Oeste 0 923.5 0.2 96
2019-04-11 06:00:00 1.6 8 Noroeste 18 Noroeste 0 923.4 0 96
2019-04-11 05:00:00 1.9 12 Noroeste 19 Noroeste 0 923.5 -0.2 96
2019-04-11 04:00:00 2.7 11 Noroeste 18 Noroeste 0 923.3 -0.4 96
2019-04-11 03:00:00 3.1 9 Noroeste 15 Noroeste 0 923.4 -0.4 95
2019-04-11 02:00:00 3.3 5 Noroeste 9 Oeste 0 923.7 0.1 93
2019-04-11 01:00:00 4.6 6 Noroeste 11 Oeste 0 923.7 0.7 92
2019-04-11 00:00:00 5.4 7 Oeste 16 Oeste 0 923.8 1.8 93
2019-04-10 23:00:00 5.1 6 Sudoeste 14 Oeste 0 923.6 2.1 92
2019-04-10 22:00:00 5.7 3 Sudoeste 18 Noroeste 0 923 1.9 88
2019-04-10 21:00:00 6.7 8 Oeste 28 Oeste 0 922 1.2 86
2019-04-10 20:00:00 8.3 12 Oeste 31 Oeste 0 921.5 1 80
2019-04-10 19:00:00 10.4 13 Oeste 30 Oeste 0.4 921.1 0.6 76
2019-04-10 18:00:00 10.9 13 Noroeste 37 Noroeste 0.2 920.8 0.5 77
2019-04-10 17:00:00 10.8 9 Noroeste 31 Oeste 0.2 920.5 0.4 83
2019-04-10 16:00:00 9.4 12 Oeste 36 Noroeste 1.6 920.5 0.2 88
2019-04-10 15:00:00 9.9 12 Oeste 31 Oeste 0.4 920.3 0.3 87
2019-04-10 14:00:00 8.6 15 Oeste 34 Noroeste 1.4 920.1 0.6 90
2019-04-10 13:00:00 7.5 12 Oeste 40 Oeste 0.4 920.3 1.1 90
2019-04-10 12:00:00 6.8 18 Oeste 35 Oeste 0 920 1.3 94
2019-04-10 11:00:00 6.4 15 Oeste 39 Noroeste 0.8 919.5 1.4 93
2019-04-10 10:00:00 5.3 17 Oeste 35 Oeste 1.4 919.2 1.5 94
2019-04-10 09:00:00 4.5 14 Oeste 37 Oeste 0.2 918.7 0.9 92
2019-04-10 08:00:00 4.1 17 Oeste 38 Oeste 0 918.1 0.6 88
2019-04-10 07:00:00 4.2 17 Oeste 37 Oeste 0.2 917.7 -0.1 92
2019-04-10 06:00:00 3.8 14 Oeste 38 Oeste 0 917.8 -0.1 92
2019-04-10 05:00:00 4 16 Oeste 43 Oeste 0.4 917.5 -0.3 93
2019-04-10 04:00:00 4 15 Oeste 28 Oeste 0.2 917.8 0.3 92
2019-04-10 03:00:00 4.2 14 Oeste 31 Oeste 0 917.9 0.5 91
2019-04-10 02:00:00 4.8 12 Oeste 33 Oeste 0 917.8 0.5 93
2019-04-10 01:00:00 4.9 17 Oeste 36 Oeste 0 917.5 0.8 94
2019-04-10 00:00:00 4.9 15 Oeste 41 Oeste 1 917.4 1.3 94
2019-04-09 23:00:00 5 18 Oeste 38 Oeste 1 917.3 1.5 93
2019-04-09 22:00:00 4.8 17 Oeste 39 Oeste 2.4 916.7 1.5 92
2019-04-09 21:00:00 5.3 20 Oeste 44 Sudoeste 0.6 916.1 0.7 90
2019-04-09 20:00:00 5.7 20 Oeste 50 Oeste 1.4 915.8 0.6 87
2019-04-09 19:00:00 7.1 21 Oeste 48 Oeste 0.2 915.2 -0.2 79
2019-04-09 18:00:00 6.7 17 Oeste 44 Oeste 0.6 915.4 -0.3 86
2019-04-09 17:00:00 8.4 19 Oeste 45 Sudoeste 0 915.2 -0.5 74
2019-04-09 16:00:00 8.8 19 Oeste 44 Oeste 0 915.4 -0.1 69
2019-04-09 15:00:00 9.2 24 Oeste 45 Sudoeste 0 915.7 0.3 73
2019-04-09 14:00:00 7.1 14 Oeste 39 Oeste 0.4 915.7 0.6 82
2019-04-09 13:00:00 8.4 13 Oeste 35 Oeste 0 915.5 0.4 73
2019-04-09 12:00:00 7.5 13 Oeste 27 Oeste 0 915.4 0.7 83
2019-04-09 11:00:00 6.5 10 Oeste 23 Oeste 0 915.1 1.5 84
2019-04-09 10:00:00 3.9 6 Oeste 16 Oeste 0.2 915.1 2 94
2019-04-09 09:00:00 2.9 10 Oeste 26 Sudoeste 2.6 914.7 1.2 93
2019-04-09 08:00:00 2.7 10 Oeste 18 Oeste 2.4 913.6 -0.1 94
2019-04-09 07:00:00 2.9 5 Noroeste 10 Nordeste 2.6 913.1 -0.8 93
2019-04-09 06:00:00 3.2 2 Norte 10 Norte 2.2 913.5 -1.1 93
2019-04-09 05:00:00 3.3 6 Norte 17 Noroeste 0.6 913.7 -0.8 93
2019-04-09 04:00:00 3.7 3 Este 19 Oeste 1.4 913.9 -0.9 89
2019-04-09 03:00:00 4.1 8 Sudoeste 19 Sudoeste 1.2 914.6 -0.3 87
2019-04-09 02:00:00 4.1 7 Sudoeste 19 Sudoeste 0 914.5 -0.5 89
2019-04-09 01:00:00 4.7 9 Sudoeste 31 Sudoeste 0.6 914.8 0 82
2019-04-09 00:00:00 5.8 7 Sur 23 Sur 0.2 914.9 0.1 78
2019-04-08 23:00:00 5.2 3 Oeste 13 Norte 0 915 0.4 75
2019-04-08 22:00:00 5.5 7 Oeste 25 Sudoeste 0 914.8 0.2 75
2019-04-08 21:00:00 7.3 9 Sudoeste 21 Sudoeste 0 914.8 0.2 66
2019-04-08 20:00:00 9.4 8 Sudoeste 32 Sudoeste 0 914.6 -0.3 52
2019-04-08 19:00:00 11 16 Sudoeste 41 Sudoeste 0 914.6 -0.8 44
2019-04-08 18:00:00 12.2 18 Sudoeste 46 Oeste 0 914.6 -0.9 47
2019-04-08 17:00:00 12.7 19 Oeste 40 Oeste 0 914.9 -0.9 48
2019-04-08 16:00:00 12.9 19 Sudoeste 39 Sudoeste 0 915.4 -0.4 49
2019-04-08 15:00:00 11.9 12 Sudoeste 40 Oeste 0 915.5 -0.6 57
2019-04-08 14:00:00 12.8 14 Sudoeste 36 Oeste 0 915.8 0 54
2019-04-08 13:00:00 11 17 Sudoeste 35 Sudoeste 0 915.8 0.1 56
2019-04-08 12:00:00 9.9 12 Sudoeste 37 Sudoeste 0 916.1 0.7 66
2019-04-08 11:00:00 7.5 9 Oeste 23 Oeste 0 915.8 0.8 75
2019-04-08 10:00:00 5 12 Oeste 25 Sudoeste 0.2 915.7 1.2 88
2019-04-08 09:00:00 4.3 3 Norte 11 Oeste 0 915.4 1.3 91
2019-04-08 08:00:00 3.5 3 Norte 21 Oeste 0 915 0.9 91
2019-04-08 07:00:00 4.4 12 Oeste 23 Oeste 0 914.5 1 92
2019-04-08 06:00:00 5.1 12 Oeste 27 Oeste 0 914.1 0.7 93
2019-04-08 05:00:00 5.7 13 Oeste 28 Oeste 0.2 914.1 1 95
2019-04-08 04:00:00 5.4 8 Oeste 21 Sudoeste 0.2 913.5 0.7 97
2019-04-08 03:00:00 4.5 5 Este 17 Sudoeste 0.2 913.4 0.9 96
2019-04-08 02:00:00 5.3 7 Sudoeste 16 Sudoeste 0.8 913.1 0.3 97
2019-04-08 01:00:00 4.4 6 Noroeste 12 Noroeste 1 912.8 -0.1 97
2019-04-08 00:00:00 4.5 3 Este 12 Nordeste 0.8 912.5 -0.2 97
2019-04-07 23:00:00 4.4 6 Nordeste 11 Este 1 912.8 0.2 96
2019-04-07 22:00:00 4.6 6 Nordeste 18 Este 1.4 912.9 0.7 95
2019-04-07 21:00:00 4.9 10 Este 19 Nordeste 1.8 912.7 0.4 94
2019-04-07 20:00:00 5.1 10 Este 23 Este 0.4 912.6 0.2 92
2019-04-07 19:00:00 4.8 10 Este 24 Este 0 912.2 -1.2 92
2019-04-07 18:00:00 4.7 12 Este 30 Este 0.4 912.3 -1.3 91
2019-04-07 17:00:00 5.1 14 Este 31 Este 0.4 912.4 -0.8 90
2019-04-07 16:00:00 5.8 10 Este 18 Este 0.8 913.4 -0.2 88
2019-04-07 15:00:00 7.2 9 Sudoeste 44 Sudoeste 0 913.6 0.1 73
2019-04-07 14:00:00 8.8 6 Este 16 Norte 0 913.2 -0.1 70
2019-04-07 13:00:00 7.1 6 Este 18 Este 0 913.6 0.4 71
2019-04-07 12:00:00 6.5 5 Este 14 Sudeste 0 913.5 0.7 80
2019-04-07 11:00:00 5.3 6 Este 12 Este 0.2 913.3 1.1 80
2019-04-07 10:00:00 4.5 4 Este 8 Este 0.2 913.2 1.4 84
2019-04-07 09:00:00 2.4 5 Oeste 11 Oeste 0.2 912.8 1.4 89
2019-04-07 08:00:00 1.1 2 Este 13 Oeste 0.2 912.2 1.3 93
2019-04-07 07:00:00 1.6 7 Oeste 21 Oeste 0.4 911.8 1.2 91
2019-04-07 06:00:00 1.5 9 Oeste 16 Oeste 0.2 911.4 1 94
2019-04-07 05:00:00 1.3 7 Noroeste 17 Oeste 0.4 910.9 0.9 95
2019-04-07 04:00:00 1.4 9 Oeste 20 Oeste 0.6 910.6 0.9 95
2019-04-07 03:00:00 1.2 9 Oeste 16 Oeste 0.6 910.4 0.9 95
2019-04-07 02:00:00 1 6 Noroeste 18 Oeste 1 910 0.8 94
2019-04-07 01:00:00 1 10 Oeste 18 Oeste 0.4 909.7 0.7 95
2019-04-07 00:00:00 1 9 Oeste 25 Oeste 0 909.5 1.3 95
2019-04-06 23:00:00 0.7 10 Oeste 19 Oeste 1.6 909.2 1.2 94
2019-04-06 22:00:00 1.5 9 Noroeste 19 Oeste 0.6 909 2 94
2019-04-06 21:00:00 1.6 6 Noroeste 27 Oeste 2.6 908.2 1.9 93
2019-04-06 20:00:00 2.7 18 Oeste 35 Oeste 1 908 2.3 89
2019-04-06 19:00:00 3.8 13 Oeste 37 Noroeste 0.6 907 1.6 90
2019-04-06 18:00:00 6.3 15 Oeste 39 Oeste 0.6 906.3 1.7 85
2019-04-06 17:00:00 3.6 20 Oeste 46 Noroeste 1.6 905.7 1.6 93
2019-04-06 16:00:00 3 15 Oeste 44 Oeste 2.8 905.4 2.1 91
2019-04-06 15:00:00 4 19 Oeste 41 Oeste 1 904.6 1.6 88
2019-04-06 14:00:00 4.5 18 Oeste 44 Sudoeste 1.4 904.1 1.7 90
2019-04-06 13:00:00 6.3 21 Oeste 42 Oeste 0 903.3 1.3 81
2019-04-06 12:00:00 4.3 17 Oeste 38 Sudoeste 0.6 903 1.4 87
2019-04-06 11:00:00 1.8 12 Oeste 26 Oeste 2 902.4 1.1 93
2019-04-06 10:00:00 0.8 8 Oeste 16 Oeste 1.6 902 0.1 95
2019-04-06 09:00:00 0.5 5 Nordeste 12 Nordeste 1 901.6 -0.7 95
2019-04-06 08:00:00 0.6 7 Este 22 Este 1 901.3 -1.5 94
2019-04-06 07:00:00 1 3 Nordeste 17 Oeste 0.2 901.9 -1.5 92
2019-04-06 06:00:00 1.4 9 Sudoeste 23 Sudoeste 0.6 902.3 -1.4 92
2019-04-06 05:00:00 1 4 Sur 15 Oeste 1.2 902.8 -1.5 93
2019-04-06 04:00:00 1.3 10 Oeste 18 Oeste 2.2 903.4 -1.1 91
2019-04-06 03:00:00 2.3 3 Este 27 Oeste 0.2 903.7 -1 90
2019-04-06 02:00:00 2.2 11 Oeste 28 Oeste 1 904.3 -0.3 90
2019-04-06 01:00:00 3.1 13 Oeste 28 Sudoeste 0 904.5 0.2 86
2019-04-06 00:00:00 2.8 9 Oeste 27 Oeste 0 904.7 1.3 89
2019-04-05 23:00:00 2.6 12 Oeste 29 Sudoeste 0 904.6 1.3 89
2019-04-05 22:00:00 2.5 12 Oeste 26 Oeste 1 904.3 1.7 88
2019-04-05 21:00:00 3.6 15 Oeste 28 Oeste 0.4 903.4 1.1 84
2019-04-05 20:00:00 4.6 12 Oeste 31 Oeste 0 903.3 1.3 81
2019-04-05 19:00:00 6.7 15 Oeste 35 Oeste 0 902.6 0.7 68
2019-04-05 18:00:00 7.5 17 Oeste 37 Oeste 0 902.3 0.6 67
2019-04-05 17:00:00 5.5 18 Oeste 41 Oeste 0.2 902 0.2 78
2019-04-05 16:00:00 8.3 13 Oeste 37 Oeste 0 901.9 -0.1 58
2019-04-05 15:00:00 10.5 15 Oeste 33 Sudoeste 0 901.7 -0.4 46
2019-04-05 14:00:00 8.8 11 Sudoeste 35 Sudoeste 0 901.8 0 52
2019-04-05 13:00:00 9.5 14 Sudoeste 33 Sudoeste 0 902 0.7 53
2019-04-05 12:00:00 7.9 11 Sudoeste 33 Sudoeste 0 902.1 0.9 55
2019-04-05 11:00:00 4.8 3 Sur 10 Sur 0 901.8 1.1 76
2019-04-05 10:00:00 2.3 6 Sudoeste 22 Sudoeste 0 901.3 0.9 82
2019-04-05 09:00:00 0.7 5 Oeste 10 Sudoeste 0 901.2 0.8 90
2019-04-05 08:00:00 0.7 5 Sur 17 Oeste 0 900.7 0 94
2019-04-05 07:00:00 0.7 10 Oeste 20 Oeste 0 900.4 -0.2 92
2019-04-05 06:00:00 1.2 11 Oeste 26 Oeste 0 900.4 -0.6 91
2019-04-05 05:00:00 1.6 9 Oeste 18 Oeste 0.6 900.7 -0.3 93
2019-04-05 04:00:00 2.2 7 Oeste 14 Oeste 0.2 900.6 -0.3 92
2019-04-05 03:00:00 2.4 3 Este 8 Sudeste 0.2 901 0 93
2019-04-05 02:00:00 2.5 4 Norte 13 Norte 0.4 901 0 94
2019-04-05 01:00:00 2.5 3 Noroeste 15 Nordeste 0.2 900.9 -0.7 93
2019-04-05 00:00:00 2.2 9 Nordeste 18 Norte 1.4 901 -0.8 93
2019-04-04 23:00:00 2.5 6 Sudeste 12 Este 1 901 -1.5 91
2019-04-04 22:00:00 2.9 4 Este 15 Este 0.2 901.6 -1.6 87
2019-04-04 21:00:00 2.8 10 Nordeste 24 Este 0 901.8 -2.2 85
2019-04-04 20:00:00 3.3 8 Este 18 Nordeste 0 902.5 -2.1 83
2019-04-04 19:00:00 4.3 10 Nordeste 17 Nordeste 0 903.2 -2.1 82
2019-04-04 18:00:00 5.9 7 Oeste 31 Sudoeste 0 904 -2.2 71
2019-04-04 17:00:00 6.6 6 Oeste 26 Noroeste 0 904.6 -2.2 67
2019-04-04 16:00:00 6.8 8 Oeste 25 Sur 0 905.3 -2.4 63
2019-04-04 15:00:00 6.7 5 Sur 37 Sudoeste 0 906.2 -2.3 60
2019-04-04 14:00:00 8.5 18 Sudoeste 37 Sudoeste 0 906.8 -2 55
2019-04-04 13:00:00 9.4 13 Sudoeste 30 Sudoeste 0 907.7 -1.5 53
2019-04-04 12:00:00 7 11 Sudoeste 27 Sudoeste 0 908.5 -0.8 61
2019-04-04 11:00:00 6.3 13 Sudoeste 26 Oeste 0 908.8 -0.3 62
2019-04-04 10:00:00 3.5 9 Sudoeste 22 Oeste 0 909.2 -0.1 77
2019-04-04 09:00:00 1.8 6 Oeste 17 Oeste 0 909.3 -0.4 84
2019-04-04 08:00:00 1.4 7 Oeste 21 Sudoeste 0 909.1 -1.1 84
2019-04-04 07:00:00 1.3 11 Oeste 26 Oeste 0 909.3 -1.3 86
2019-04-04 06:00:00 1.3 12 Oeste 24 Oeste 0 909.7 -1.8 87
2019-04-04 05:00:00 1.3 9 Oeste 21 Oeste 0 910.2 -1.9 87
2019-04-04 04:00:00 1.2 9 Oeste 20 Oeste 0 910.6 -2.2 88
2019-04-04 03:00:00 1.2 9 Oeste 19 Noroeste 0 911.5 -1.7 89
2019-04-04 02:00:00 0.8 10 Oeste 31 Oeste 0 912.1 -1.3 86
2019-04-04 01:00:00 1.4 11 Oeste 22 Oeste 0 912.8 -0.4 85
2019-04-04 00:00:00 1.2 7 Oeste 24 Noroeste 0 913.2 0.3 84
2019-04-03 23:00:00 1.6 12 Oeste 30 Oeste 0 913.4 0.9 81
2019-04-03 22:00:00 2.2 15 Noroeste 41 Noroeste 0 913.2 0.8 77
2019-04-03 21:00:00 2.6 7 Noroeste 37 Noroeste 0 912.9 0.3 76
2019-04-03 20:00:00 4.4 14 Noroeste 41 Noroeste 0 912.5 -0.7 64
2019-04-03 19:00:00 7.1 13 Noroeste 41 Oeste 0 912.4 -0.7 50
2019-04-03 18:00:00 7.7 14 Noroeste 38 Noroeste 0 912.6 -1.3 55
2019-04-03 17:00:00 5.9 15 Noroeste 42 Noroeste 0 913.2 -1.6 71
2019-04-03 16:00:00 7.1 19 Oeste 44 Oeste 0.2 913.1 -1.8 67
2019-04-03 15:00:00 6.4 11 Oeste 33 Noroeste 0 913.9 -1.4 73
2019-04-03 14:00:00 4.8 15 Oeste 37 Oeste 0.4 914.8 -0.7 85
2019-04-03 13:00:00 4.7 14 Oeste 34 Noroeste 0.2 914.9 -0.8 82
2019-04-03 12:00:00 4.8 13 Oeste 39 Noroeste 0 915.3 -0.6 77
2019-04-03 11:00:00 5.3 12 Noroeste 31 Noroeste 0 915.5 -0.4 75
2019-04-03 10:00:00 3.4 10 Noroeste 28 Noroeste 0 915.7 -0.3 86
2019-04-03 09:00:00 2.6 9 Noroeste 25 Noroeste 0.4 915.9 -0.5 89
2019-04-03 08:00:00 2.7 6 Noroeste 26 Noroeste 0 915.9 -1.1 85
2019-04-03 07:00:00 2.9 11 Oeste 22 Oeste 0 916 -1.6 87
2019-04-03 06:00:00 3.2 7 Oeste 20 Noroeste 0 916.4 -1.7 86
2019-04-03 05:00:00 3.5 6 Noroeste 28 Noroeste 0 917 -1.7 82
2019-04-03 04:00:00 4 10 Noroeste 22 Noroeste 0 917.6 -1.5 80
2019-04-03 03:00:00 4.3 9 Oeste 22 Oeste 0 918.1 -1.2 79
2019-04-03 02:00:00 4.6 8 Oeste 21 Oeste 0 918.7 -0.5 79
2019-04-03 01:00:00 5.1 10 Noroeste 25 Oeste 0 919.1 0.1 79
2019-04-03 00:00:00 5.7 13 Oeste 30 Oeste 0 919.3 0.7 77
2019-04-02 23:00:00 6.4 11 Noroeste 31 Noroeste 0 919.2 0.8 72
2019-04-02 22:00:00 7.4 13 Noroeste 35 Oeste 0 919 0.7 69
2019-04-02 21:00:00 8.7 12 Noroeste 31 Noroeste 0 918.6 -0.1 70
2019-04-02 20:00:00 10.2 11 Noroeste 28 Noroeste 0 918.4 -0.6 63
2019-04-02 19:00:00 11.8 12 Noroeste 28 Noroeste 0 918.3 -1.2 53
2019-04-02 18:00:00 13.6 12 Noroeste 28 Oeste 0 918.7 -1.6 47
2019-04-02 17:00:00 14.2 13 Oeste 30 Oeste 0 919 -1.7 46
2019-04-02 16:00:00 14.5 12 Oeste 30 Noroeste 0 919.5 -1.6 49
2019-04-02 15:00:00 13.9 13 Oeste 27 Sudoeste 0 920.3 -1.1 55
2019-04-02 14:00:00 12.9 12 Oeste 24 Oeste 0 920.7 -0.5 58
2019-04-02 13:00:00 11.1 12 Noroeste 23 Oeste 0 921.1 0.1 63
2019-04-02 12:00:00 9.8 10 Noroeste 23 Noroeste 0 921.4 1.1 70
2019-04-02 11:00:00 5.7 12 Oeste 27 Oeste 0 921.2 1.2 87
2019-04-02 10:00:00 4.5 9 Sudoeste 23 Oeste 0 921 1.3 89
2019-04-02 09:00:00 4.5 13 Oeste 27 Oeste 0 920.3 0.8 84
2019-04-02 08:00:00 2.1 8 Oeste 17 Oeste 0 920 0.3 85
2019-04-02 07:00:00 3.2 5 Oeste 20 Oeste 0 919.7 0.1 79
2019-04-02 06:00:00 3.6 13 Oeste 23 Oeste 0 919.5 -0.1 81
2019-04-02 05:00:00 4.9 15 Oeste 26 Oeste 0 919.7 -0.1 76
2019-04-02 04:00:00 4.8 7 Oeste 18 Oeste 0 919.6 -0.2 69
2019-04-02 03:00:00 5.8 10 Oeste 24 Oeste 0 919.6 -0.1 67
2019-04-02 02:00:00 6.7 15 Oeste 28 Oeste 0 919.8 0.5 70
2019-04-02 01:00:00 7.4 17 Oeste 28 Oeste 0 919.8 1 68
2019-04-02 00:00:00 7.9 15 Oeste 25 Oeste 0 919.7 1.7 64
2019-04-01 23:00:00 8.9 11 Oeste 25 Oeste 0 919.3 2 61
2019-04-01 22:00:00 10.3 12 Oeste 24 Oeste 0 918.8 2.2 54
2019-04-01 21:00:00 11.8 10 Oeste 24 Oeste 0 918 1.5 51
2019-04-01 20:00:00 13.3 13 Oeste 29 Oeste 0 917.3 0.9 50
2019-04-01 19:00:00 16.1 15 Oeste 33 Oeste 0 916.6 -0.1 29
2019-04-01 18:00:00 18 13 Noroeste 33 Oeste 0 916.5 -0.6 26
2019-04-01 17:00:00 17.6 13 Noroeste 32 Noroeste 0 916.4 -1.2 34
2019-04-01 16:00:00 18.4 14 Noroeste 32 Noroeste 0 916.7 -1.3 29
2019-04-01 15:00:00 17.7 10 Noroeste 24 Oeste 0 917.1 -1.1 33
2019-04-01 14:00:00 15.1 5 Noroeste 20 Noroeste 0 917.6 -0.4 43
2019-04-01 13:00:00 16.3 3 Sudeste 14 Nordeste 0 918 0.3 40
2019-04-01 12:00:00 13.9 6 Este 14 Este 0 918.2 0.8 50
2019-04-01 11:00:00 11.8 6 Nordeste 12 Nordeste 0 918 1.1 56
2019-04-01 10:00:00 9.4 2 Nordeste 10 Noroeste 0 917.7 1.2 63
2019-04-01 09:00:00 5.9 5 Noroeste 9 Norte 0 917.4 0.9 73
2019-04-01 08:00:00 4.8 5 Noroeste 9 Norte 0 916.9 0.4 73
2019-04-01 07:00:00 4.9 6 Norte 10 Norte 0 916.5 -0.1 73
2019-04-01 06:00:00 5.8 4 Norte 11 Nordeste 0 916.5 -0.3 69
2019-04-01 05:00:00 6.5 6 Nordeste 12 Nordeste 0 916.5 -0.1 67
2019-04-01 04:00:00 5.7 4 Nordeste 9 Norte 0 916.6 -0.1 72
2019-04-01 03:00:00 6.1 4 Nordeste 13 Noroeste 0 916.8 0.1 71
2019-04-01 02:00:00 6.3 5 Noroeste 13 Noroeste 0 916.6 -0.5 69
2019-04-01 01:00:00 7.3 10 Noroeste 13 Noroeste 0 916.7 0.3 67
2019-04-01 00:00:00 8.9 6 Oeste 15 Oeste 0 916.7 0.8 63
2019-03-31 23:00:00 10.1 7 Noroeste 18 Oeste 0 917.1 1.6 58
2019-03-31 22:00:00 11.3 7 Sudoeste 19 Oeste 0 916.4 1.1 53
2019-03-31 21:00:00 11.9 5 Oeste 15 Oeste 0 915.9 0.6 44
2019-03-31 20:00:00 14.4 5 Noroeste 25 Noroeste 0 915.5 0 35
2019-03-31 19:00:00 16.4 13 Oeste 23 Noroeste 0 915.3 -0.7 32
2019-03-31 18:00:00 17.5 7 Sudeste 17 Sur 0 915.3 -1.2 26
2019-03-31 17:00:00 17.3 10 Sur 36 Sudeste 0 915.5 -1.6 27
2019-03-31 16:00:00 17.3 3 Sudeste 24 Sudeste 0 916 -1.8 29
2019-03-31 15:00:00 18.1 9 Este 22 Sudeste 0 916.5 -1.8 25
2019-03-31 14:00:00 16.6 11 Nordeste 23 Este 0 917.1 -1.2 34
2019-03-31 13:00:00 15.2 14 Este 24 Este 0 917.8 -0.4 39
2019-03-31 12:00:00 13.5 7 Este 18 Nordeste 0 918.3 0.3 45
2019-03-31 11:00:00 11.5 10 Este 19 Este 0 918.3 0.5 55
2019-03-31 10:00:00 7.6 6 Norte 19 Norte 0 918.2 0.4 66
2019-03-31 09:00:00 4.7 7 Noroeste 16 Noroeste 0 918 -0.1 74
2019-03-31 08:00:00 2.7 7 Noroeste 12 Noroeste 0 917.8 -0.8 78
2019-03-31 07:00:00 3.1 9 Noroeste 17 Noroeste 0 917.8 -1.3 77
2019-03-31 06:00:00 3.5 10 Noroeste 15 Noroeste 0 918.1 -1.4 75
2019-03-31 05:00:00 3.9 10 Noroeste 14 Noroeste 0 918.6 -1.4 74
2019-03-31 03:00:00 5.3 9 Noroeste 15 Noroeste 0 919.5 -1 71
2019-03-31 01:00:00 6 9 Noroeste 15 Noroeste 0 920 -0.6 69
2019-03-31 00:00:00 7.4 11 Noroeste 15 Noroeste 0 920.4 -0.1 64
2019-03-30 23:00:00 9.5 8 Oeste 16 Oeste 0 920.5 0.5 59
2019-03-30 22:00:00 10.7 5 Noroeste 8 Noroeste 0 920.6 0.6 58
2019-03-30 21:00:00 11.3 3 Oeste 12 Sudeste 0 920.5 0.9 55
2019-03-30 20:00:00 11.4 4 Sudeste 14 Nordeste 0 920 0.3 54
2019-03-30 19:00:00 11.5 10 Este 26 Sudeste 1.2 920 -0.2 61
2019-03-30 18:00:00 17 3 Sur 15 Oeste 0 919.6 -1 30
2019-03-30 17:00:00 17.4 8 Oeste 19 Noroeste 0 919.7 -1.4 31
2019-03-30 16:00:00 15.8 6 Norte 19 Este 0 920.2 -1.3 34
2019-03-30 15:00:00 16.6 3 Sudeste 14 Sudoeste 0 920.6 -1.4 29
2019-03-30 14:00:00 16.5 4 Sudoeste 10 Sudoeste 0 921.1 -1.3 30
2019-03-30 13:00:00 16.9 5 Norte 24 Sudeste 0 921.5 -0.9 33
2019-03-30 12:00:00 16.9 9 Este 23 Este 0 922 -0.5 42
2019-03-30 11:00:00 15.1 8 Sudeste 17 Sudeste 0 922.4 0.1 47
2019-03-30 10:00:00 13.1 6 Este 13 Sudeste 0 922.4 0.3 49
2019-03-30 09:00:00 10.8 3 Noroeste 11 Noroeste 0 922.5 0.5 54
2019-03-30 08:00:00 5.5 6 Noroeste 13 Noroeste 0 922.3 0.1 70
2019-03-30 07:00:00 5.2 9 Noroeste 15 Oeste 0 922.1 -0.3 67
2019-03-30 06:00:00 5.7 10 Noroeste 17 Noroeste 0 922 -0.7 66
2019-03-30 05:00:00 5.6 11 Noroeste 16 Noroeste 0 922.2 -0.8 67
2019-03-30 04:00:00 6 12 Noroeste 17 Noroeste 0 922.4 -0.8 65
2019-03-30 03:00:00 6.3 9 Noroeste 14 Noroeste 0 922.7 -0.8 64
2019-03-30 02:00:00 8 2 Sur 14 Oeste 0 923 -0.8 59
2019-03-30 01:00:00 10.2 7 Oeste 15 Oeste 0 923.2 -0.4 50
2019-03-30 00:00:00 11.3 8 Oeste 20 Oeste 0 923.5 0.2 47
2019-03-29 23:00:00 11 10 Oeste 17 Oeste 0 923.8 1.1 49
2019-03-29 22:00:00 11.4 10 Oeste 26 Sudoeste 0 923.6 1.3 49
2019-03-29 21:00:00 12.6 12 Oeste 21 Oeste 0 923.3 1.1 45
2019-03-29 20:00:00 14.4 10 Oeste 27 Sudoeste 0 922.7 0.4 40
2019-03-29 19:00:00 16.1 8 Oeste 21 Oeste 0 922.3 -0.5 28
2019-03-29 18:00:00 17.9 9 Oeste 26 Oeste 0 922.2 -1.2 25
2019-03-29 17:00:00 19.3 9 Oeste 22 Oeste 0 922.3 -1.8 24
2019-03-29 16:00:00 19.2 8 Noroeste 22 Oeste 0 922.8 -1.9 25
2019-03-29 15:00:00 20.1 8 Noroeste 23 Noroeste 0 923.4 -1.9 27
2019-03-29 14:00:00 19.5 10 Noroeste 21 Noroeste 0 924.1 -1.7 27
2019-03-29 13:00:00 17.9 7 Nordeste 17 Este 0 924.7 -1.2 28
2019-03-29 12:00:00 16 7 Este 17 Sudeste 0 925.3 -0.7 28
2019-03-29 11:00:00 14.4 6 Este 14 Sudeste 0 925.8 -0.3 31
2019-03-29 10:00:00 12 7 Nordeste 12 Este 0 925.9 -0.2 37
2019-03-29 09:00:00 9.3 5 Noroeste 13 Noroeste 0 926 0 47
2019-03-29 08:00:00 4.3 8 Noroeste 13 Noroeste 0 926.1 0.2 59
2019-03-29 07:00:00 3.8 4 Noroeste 18 Noroeste 0 926.1 -0.1 56
2019-03-29 06:00:00 3.7 8 Noroeste 13 Noroeste 0 926 -0.5 57
2019-03-29 05:00:00 4.9 5 Noroeste 10 Oeste 0 925.9 -0.9 52
2019-03-29 04:00:00 5.9 8 Noroeste 12 Noroeste 0 926.2 -0.8 49
2019-03-29 03:00:00 6.4 7 Norte 12 Este 0 926.5 -0.8 50
2019-03-29 02:00:00 6 8 Norte 14 Noroeste 0 926.8 -0.6 55
2019-03-29 01:00:00 6.7 5 Noroeste 14 Noroeste 0 927 -0.1 55
2019-03-29 00:00:00 7.2 9 Noroeste 12 Oeste 0 927.3 0.2 57
2019-03-28 23:00:00 7.7 6 Noroeste 14 Noroeste 0 927.4 1.1 59
2019-03-28 22:00:00 9.3 8 Noroeste 16 Noroeste 0 927.1 1.1 58
2019-03-28 21:00:00 11.6 6 Oeste 17 Oeste 0 927.1 1.3 55
2019-03-28 20:00:00 14.1 9 Oeste 16 Oeste 0 926.3 0.1 46
2019-03-28 19:00:00 16.9 6 Nordeste 17 Este 0 926 -0.9 23
2019-03-28 18:00:00 18.8 7 Este 22 Este 0 925.8 -1.7 16
2019-03-28 17:00:00 19.9 9 Este 21 Este 0 926.2 -2.1 14
2019-03-28 16:00:00 19.7 7 Este 21 Este 0 926.9 -1.9 20
2019-03-28 15:00:00 19.3 10 Este 21 Nordeste 0 927.5 -1.9 23
2019-03-28 14:00:00 18.6 5 Este 21 Este 0 928.3 -1.6 22
2019-03-28 13:00:00 17.2 11 Nordeste 23 Este 0 928.8 -1 29
2019-03-28 12:00:00 15.9 9 Este 19 Este 0 929.4 -0.5 30
2019-03-28 11:00:00 14.2 8 Este 19 Nordeste 0 929.9 0.2 35
2019-03-28 10:00:00 12.6 6 Este 13 Este 0 929.8 0.5 32
2019-03-28 09:00:00 10.1 4 Este 11 Noroeste 0 929.9 0.9 41
2019-03-28 08:00:00 4.7 8 Noroeste 13 Noroeste 0 929.7 1.1 55
2019-03-28 07:00:00 2.9 8 Noroeste 13 Noroeste 0 929.3 0.6 58
2019-03-28 06:00:00 2.9 10 Noroeste 16 Noroeste 0 929 0.1 60
2019-03-28 05:00:00 3.5 9 Noroeste 15 Noroeste 0 928.6 -0.4 60
2019-03-28 04:00:00 4.3 10 Noroeste 15 Noroeste 0 928.7 -0.4 59
2019-03-28 03:00:00 4.5 9 Noroeste 15 Noroeste 0 928.9 0 61
2019-03-28 02:00:00 5 9 Noroeste 14 Noroeste 0 929 0.4 64
2019-03-28 01:00:00 5.5 9 Noroeste 15 Noroeste 0 929.1 1 66
2019-03-28 00:00:00 6.7 9 Noroeste 14 Noroeste 0 928.9 1.2 63
2019-03-27 23:00:00 8.1 9 Noroeste 21 Noroeste 0 928.6 1.5 61
2019-03-27 22:00:00 9.5 12 Noroeste 19 Noroeste 0 928.1 1.5 60
2019-03-27 21:00:00 11.1 10 Noroeste 23 Oeste 0 927.7 1.6 58
2019-03-27 20:00:00 13.3 13 Oeste 26 Oeste 0 927.1 1.1 52
2019-03-27 19:00:00 15.7 10 Noroeste 24 Oeste 0 926.6 0.3 41
2019-03-27 18:00:00 17.9 10 Noroeste 30 Oeste 0 926.1 -0.5 31
2019-03-27 17:00:00 21.3 5 Oeste 17 Noroeste 0 926 -1 14
2019-03-27 16:00:00 20.4 6 Sudeste 25 Este 0 926.3 -1.1 9
2019-03-27 15:00:00 19.9 10 Nordeste 21 Nordeste 0 926.6 -1.2 11
2019-03-27 14:00:00 19.5 4 Este 23 Nordeste 0 927 -0.8 11
2019-03-27 13:00:00 18.4 10 Este 23 Este 0 927.4 0 14
2019-03-27 12:00:00 16.7 12 Este 26 Este 0 927.8 0.7 14
2019-03-27 11:00:00 14.9 8 Este 22 Este 0 927.8 1.1 13
2019-03-27 10:00:00 12.6 10 Este 25 Nordeste 0 927.4 1.4 16
2019-03-27 09:00:00 10.8 13 Este 22 Este 0 927.1 1.4 12
2019-03-27 08:00:00 8.1 10 Este 21 Este 0 926.7 1.3 13
2019-03-27 07:00:00 6.2 11 Este 18 Este 0 926 0.9 13
2019-03-27 06:00:00 6.3 6 Este 21 Nordeste 0 925.7 0.5 13
2019-03-27 05:00:00 7 10 Este 25 Este 0 925.4 0 13
2019-03-27 04:00:00 7.4 10 Sudeste 30 Nordeste 0 925.1 -0.2 12
2019-03-27 03:00:00 7.6 11 Este 23 Este 0 925.2 0.2 12
2019-03-27 02:00:00 7.7 6 Este 23 Este 0 925.4 0.6 12
2019-03-27 01:00:00 8.1 9 Sudeste 20 Este 0 925.3 1.1 12
2019-03-27 00:00:00 9 11 Sudeste 22 Este 0 925 1.2 12
2019-03-26 23:00:00 10.3 8 Sudeste 31 Nordeste 0 924.8 1.9 13
2019-03-26 22:00:00 11.4 19 Este 32 Nordeste 0 924.2 1.9 15
2019-03-26 21:00:00 12.4 14 Este 28 Este 0 923.8 2 15
2019-03-26 20:00:00 13.9 17 Este 31 Nordeste 0 922.9 1.1 13
2019-03-26 19:00:00 15.5 18 Este 35 Este 0 922.3 0.4 13
2019-03-26 18:00:00 17.3 15 Este 35 Este 0 921.8 -0.3 13
2019-03-26 17:00:00 18.4 18 Este 43 Este 0 921.8 -0.7 11
2019-03-26 16:00:00 18.6 24 Este 44 Este 0 921.9 -1.2 11
2019-03-26 15:00:00 18.2 20 Este 45 Este 0 922.1 -1.5 14
2019-03-26 14:00:00 17.6 20 Este 40 Este 0 922.5 -1.5 16
2019-03-26 13:00:00 16.8 19 Este 36 Nordeste 0 923.1 -0.7 19
2019-03-26 12:00:00 15 13 Este 30 Nordeste 0 923.6 0 27
2019-03-26 11:00:00 12 16 Este 32 Este 0 924 0.2 32
2019-03-26 10:00:00 9.7 13 Este 26 Este 0 923.8 0.1 39
2019-03-26 09:00:00 7.7 9 Este 23 Este 0 923.6 0.1 47
2019-03-26 08:00:00 5.6 9 Este 19 Este 0 923.8 0.4 50
2019-03-26 07:00:00 4.5 6 Este 16 Este 0 923.7 -0.2 51
2019-03-26 06:00:00 5.1 5 Este 14 Este 0 923.5 -1 51
2019-03-26 05:00:00 5.6 6 Sudeste 15 Este 0 923.4 -1.4 49
2019-03-26 04:00:00 6.1 11 Este 19 Este 0 923.9 -1.2 49
2019-03-26 03:00:00 6 4 Sudeste 12 Nordeste 0 924.5 -0.9 51
2019-03-26 02:00:00 7.2 5 Este 12 Sudeste 0 924.8 -0.3 46
2019-03-26 01:00:00 8 7 Sudeste 17 Este 0 925.1 0.6 45
2019-03-26 00:00:00 8.6 9 Este 28 Este 0 925.4 1.4 46
2019-03-25 23:00:00 9 10 Este 18 Este 0 925.1 1.5 56
2019-03-25 22:00:00 9.3 4 Noroeste 14 Noroeste 0 924.5 1.1 71
2019-03-25 21:00:00 10.4 8 Oeste 25 Oeste 0 924 0.8 69
2019-03-25 20:00:00 12.3 16 Oeste 27 Oeste 0 923.6 0.2 62
2019-03-25 19:00:00 15.2 8 Oeste 23 Oeste 0 923.4 -0.6 46
2019-03-25 18:00:00 17 12 Oeste 27 Oeste 0 923.2 -1.5 35
2019-03-25 17:00:00 19.2 12 Oeste 25 Oeste 0 923.4 -2.1 32
2019-03-25 16:00:00 19 13 Oeste 27 Oeste 0 924 -2.4 38
2019-03-25 15:00:00 19.3 11 Oeste 24 Noroeste 0 924.7 -2.3 40
2019-03-25 14:00:00 18.4 5 Este 17 Este 0 925.5 -1.8 35
2019-03-25 13:00:00 16.6 8 Este 17 Nordeste 0 926.4 -0.9 40
2019-03-25 12:00:00 14.8 9 Este 19 Sudeste 0 927 -0.1 46
2019-03-25 11:00:00 13.4 9 Este 15 Sudeste 0 927.3 0.5 45
2019-03-25 10:00:00 11.9 4 Este 10 Este 0 927.3 0.7 56
2019-03-25 09:00:00 8.8 4 Noroeste 10 Noroeste 0 927.1 0.5 71
2019-03-25 08:00:00 4.6 5 Noroeste 11 Noroeste 0 926.8 0.2 79
2019-03-25 07:00:00 3.4 4 Noroeste 10 Noroeste 0 926.6 0.1 81
2019-03-25 06:00:00 4.2 8 Noroeste 13 Noroeste 0 926.6 -0.2 80
2019-03-25 05:00:00 4.8 7 Noroeste 12 Noroeste 0 926.6 -0.4 81
2019-03-25 04:00:00 5 8 Noroeste 11 Noroeste 0 926.5 -0.6 83
2019-03-25 03:00:00 5.7 6 Noroeste 10 Noroeste 0 926.8 -0.4 81
2019-03-25 02:00:00 6.4 6 Oeste 12 Noroeste 0 927 -0.3 80
2019-03-25 01:00:00 7.9 4 Norte 11 Noroeste 0 927.1 -0.1 77
2019-03-25 00:00:00 8.2 8 Noroeste 18 Noroeste 0 927.2 0.7 78